Time;durP1;ratioP1;P1;durP2;ratioP2;P2;SDS_P1;SDS_P2;PMS_P1;PMS_P2;Temp;Humidity;BMP_temperature;BMP_pressure;BME280_temperature;BME280_humidity;BME280_pressure;Samples;Min_cycle;Max_cycle;Signal;HPM_P1;HPM_P2
2023/03/08 00:02:05;;;;;;;;;;;3.00;99.90;;;;;;4875163;29;19928;-64
2023/03/08 00:04:37;;;;;;;;;;;3.10;99.90;;;;;;4850513;29;19932;-64
2023/03/08 00:07:09;;;;;;;;;;;3.10;99.90;;;;;;4868367;29;20336;-64
2023/03/08 00:09:41;;;;;;;;;;;3.10;99.90;;;;;;4872016;29;20304;-64
2023/03/08 00:12:09;;;;;;;;;;;3.00;99.90;;;;;;4872996;29;19935;-64
2023/03/08 00:14:41;;;;;;;;;;;3.00;99.90;;;;;;4876398;29;20477;-64
2023/03/08 00:17:14;;;;;;;;;;;3.00;99.90;;;;;;4872456;29;19934;-64
2023/03/08 00:19:45;;;;;;;;;;;3.00;99.90;;;;;;4869361;29;19967;-64
2023/03/08 00:22:17;;;;;;;;;;;2.90;99.90;;;;;;4856788;29;19928;-64
2023/03/08 00:24:44;;;;;;;;;;;2.90;99.90;;;;;;4873113;29;19929;-64
2023/03/08 00:27:16;;;;;;;;;;;2.90;99.90;;;;;;4868012;29;19931;-64
2023/03/08 00:29:48;;;;;;;;;;;2.90;99.90;;;;;;4876926;29;19984;-64
2023/03/08 00:32:19;;;;;;;;;;;2.90;99.90;;;;;;4875994;29;19991;-64
2023/03/08 00:34:52;;;;;;;;;;;2.80;99.90;;;;;;4872213;29;20369;-64
2023/03/08 00:37:24;;;;;;;;;;;2.80;99.90;;;;;;4859231;29;19928;-64
2023/03/08 00:39:55;;;;;;;;;;;2.80;99.90;;;;;;4867552;29;19932;-64
2023/03/08 00:42:27;;;;;;;;;;;2.80;99.90;;;;;;4860485;29;20436;-64
2023/03/08 00:44:58;;;;;;;;;;;2.70;99.90;;;;;;4875193;29;19928;-64
2023/03/08 00:47:30;;;;;;;;;;;2.80;99.90;;;;;;4871395;29;19969;-63
2023/03/08 00:50:02;;;;;;;;;;;2.80;99.90;;;;;;4872212;29;20031;-64
2023/03/08 00:52:34;;;;;;;;;;;2.80;99.90;;;;;;4885144;29;19963;-63
2023/03/08 00:55:07;;;;;;;;;;;2.70;99.90;;;;;;4868205;29;19927;-64
2023/03/08 00:57:38;;;;;;;;;;;2.70;99.90;;;;;;4877124;29;19988;-64
2023/03/08 01:00:11;;;;;;;;;;;2.70;99.90;;;;;;4879328;29;19928;-64
2023/03/08 01:02:43;;;;;;;;;;;2.80;99.90;;;;;;4875758;29;19935;-67
2023/03/08 01:05:10;;;;;;;;;;;2.80;99.90;;;;;;4875420;29;19932;-65
2023/03/08 01:07:36;;;;;;;;;;;2.80;99.90;;;;;;4874642;29;20015;-64
2023/03/08 01:10:08;;;;;;;;;;;2.80;99.90;;;;;;4846718;29;20313;-64
2023/03/08 01:12:41;;;;;;;;;;;2.80;99.90;;;;;;4873106;29;20313;-64
2023/03/08 01:15:13;;;;;;;;;;;2.80;99.90;;;;;;4866096;29;19927;-64
2023/03/08 01:17:40;;;;;;;;;;;2.70;99.90;;;;;;4867514;29;19939;-64
2023/03/08 01:20:07;;;;;;;;;;;2.70;99.90;;;;;;4877137;29;19934;-64
2023/03/08 01:22:39;;;;;;;;;;;2.70;99.90;;;;;;4873852;29;19928;-64
2023/03/08 01:25:11;;;;;;;;;;;2.60;99.90;;;;;;4876507;29;19928;-64
2023/03/08 01:27:38;;;;;;;;;;;2.60;99.90;;;;;;4869179;29;19932;-64
2023/03/08 01:30:10;;;;;;;;;;;2.60;99.90;;;;;;4859249;29;20078;-64
2023/03/08 01:32:41;;;;;;;;;;;2.60;99.90;;;;;;4871090;29;19934;-64
2023/03/08 01:35:08;;;;;;;;;;;2.60;99.90;;;;;;4862454;29;19939;-64
2023/03/08 01:37:40;;;;;;;;;;;2.60;99.90;;;;;;4870517;29;19932;-64
2023/03/08 01:40:13;;;;;;;;;;;2.50;99.90;;;;;;4875666;29;19932;-64
2023/03/08 01:42:45;;;;;;;;;;;2.50;99.90;;;;;;4870108;29;19935;-64
2023/03/08 01:45:36;;;;;;;;;;;2.50;99.90;;;;;;4876834;29;19935;-64
2023/03/08 01:48:08;;;;;;;;;;;2.40;99.90;;;;;;4862122;29;20298;-64
2023/03/08 01:50:57;;;;;;;;;;;2.40;99.90;;;;;;4868375;29;19954;-64
2023/03/08 01:53:29;;;;;;;;;;;2.40;99.90;;;;;;4861493;29;19928;-64
2023/03/08 01:55:56;;;;;;;;;;;2.30;99.90;;;;;;4876577;29;19928;-64
2023/03/08 01:58:28;;;;;;;;;;;2.40;99.90;;;;;;4866298;29;19966;-64
2023/03/08 02:01:00;;;;;;;;;;;2.30;99.90;;;;;;4866797;29;19958;-64
2023/03/08 02:03:31;;;;;;;;;;;2.30;99.90;;;;;;4869417;29;19931;-64
2023/03/08 02:06:04;;;;;;;;;;;2.30;99.90;;;;;;4875541;29;20027;-65
2023/03/08 02:08:36;;;;;;;;;;;2.20;99.90;;;;;;4864201;29;19928;-64
2023/03/08 02:11:03;;;;;;;;;;;2.20;99.90;;;;;;4876139;29;20023;-64
2023/03/08 02:13:35;;;;;;;;;;;2.20;99.90;;;;;;4851864;29;19984;-64
2023/03/08 02:16:04;;;;;;;;;;;2.20;99.90;;;;;;4869077;29;19939;-64
2023/03/08 02:18:36;;;;;;;;;;;2.10;99.90;;;;;;4873609;29;19938;-64
2023/03/08 02:21:08;;;;;;;;;;;2.10;99.90;;;;;;4860813;29;19931;-65
2023/03/08 02:23:40;;;;;;;;;;;2.10;99.90;;;;;;4864332;29;20420;-65
2023/03/08 02:26:12;;;;;;;;;;;2.10;99.90;;;;;;4874380;29;19934;-64
2023/03/08 02:28:45;;;;;;;;;;;2.10;99.90;;;;;;4870678;29;20438;-64
2023/03/08 02:31:20;;;;;;;;;;;2.00;99.90;;;;;;4863747;29;19932;-65
2023/03/08 02:33:46;;;;;;;;;;;2.00;99.90;;;;;;4869813;29;19970;-64
2023/03/08 02:36:18;;;;;;;;;;;2.00;99.90;;;;;;4866675;29;19936;-64
2023/03/08 02:38:50;;;;;;;;;;;1.90;99.90;;;;;;4860793;29;19943;-64
2023/03/08 02:41:21;;;;;;;;;;;1.90;99.90;;;;;;4873837;29;19928;-64
2023/03/08 02:43:53;;;;;;;;;;;1.90;99.90;;;;;;4868419;29;20310;-64
2023/03/08 02:46:26;;;;;;;;;;;1.80;99.90;;;;;;4872775;29;19935;-64
2023/03/08 02:48:58;;;;;;;;;;;1.80;99.90;;;;;;4869404;29;19936;-64
2023/03/08 02:51:30;;;;;;;;;;;1.80;99.90;;;;;;4881888;29;19929;-64
2023/03/08 02:54:01;;;;;;;;;;;1.70;99.90;;;;;;4877681;29;20438;-64
2023/03/08 02:56:33;;;;;;;;;;;1.70;99.90;;;;;;4868077;29;19984;-64
2023/03/08 02:59:06;;;;;;;;;;;1.80;99.90;;;;;;4873102;29;20437;-64
2023/03/08 03:01:37;;;;;;;;;;;1.80;99.90;;;;;;4875136;29;19966;-64
2023/03/08 03:04:09;;;;;;;;;;;1.80;99.90;;;;;;4869325;29;19931;-64
2023/03/08 03:06:41;;;;;;;;;;;1.80;99.90;;;;;;4873126;29;20312;-64
2023/03/08 03:09:13;;;;;;;;;;;1.80;99.90;;;;;;4859143;29;19951;-64
2023/03/08 03:11:45;;;;;;;;;;;1.80;99.90;;;;;;4858206;29;19932;-64
2023/03/08 03:14:16;;;;;;;;;;;1.80;99.90;;;;;;4857184;29;19957;-64
2023/03/08 03:16:48;;;;;;;;;;;1.80;99.90;;;;;;4872286;29;20018;-64
2023/03/08 03:19:20;;;;;;;;;;;1.80;99.90;;;;;;4863860;29;19928;-64
2023/03/08 03:21:52;;;;;;;;;;;1.80;99.90;;;;;;4872622;29;19985;-64
2023/03/08 03:24:23;;;;;;;;;;;1.80;99.90;;;;;;4877224;29;20434;-65
2023/03/08 03:26:57;;;;;;;;;;;1.90;99.90;;;;;;4874509;29;20010;-68
2023/03/08 03:29:32;;;;;;;;;;;2.00;99.90;;;;;;4880799;29;19928;-64
2023/03/08 03:32:12;;;;;;;;;;;2.00;99.90;;;;;;4874304;29;19928;-64
2023/03/08 03:34:44;;;;;;;;;;;2.00;99.90;;;;;;4873241;29;19974;-64
2023/03/08 03:37:18;;;;;;;;;;;2.00;99.90;;;;;;4873683;29;19936;-64
2023/03/08 03:39:50;;;;;;;;;;;1.90;99.90;;;;;;4872306;29;19976;-64
2023/03/08 03:42:17;;;;;;;;;;;2.00;99.90;;;;;;4859691;29;20393;-64
2023/03/08 03:44:58;;;;;;;;;;;2.00;99.90;;;;;;4865289;29;19979;-65
2023/03/08 03:47:29;;;;;;;;;;;2.00;99.90;;;;;;4875391;29;19928;-65
2023/03/08 03:50:04;;;;;;;;;;;2.00;99.90;;;;;;4877545;29;19932;-64
2023/03/08 03:52:41;;;;;;;;;;;2.00;99.90;;;;;;4876590;29;19932;-64
2023/03/08 03:55:13;;;;;;;;;;;2.00;99.90;;;;;;4853118;29;20009;-64
2023/03/08 03:57:44;;;;;;;;;;;2.00;99.90;;;;;;4867604;29;19928;-64
2023/03/08 04:00:15;;;;;;;;;;;2.00;99.90;;;;;;4869632;29;19943;-64
2023/03/08 04:02:55;;;;;;;;;;;2.00;99.90;;;;;;4873711;29;20441;-64
2023/03/08 04:05:28;;;;;;;;;;;2.00;99.90;;;;;;4876836;29;19932;-64
2023/03/08 04:08:00;;;;;;;;;;;2.00;99.90;;;;;;4876264;29;20401;-64
2023/03/08 04:10:34;;;;;;;;;;;2.00;99.90;;;;;;4875599;29;20768;-64
2023/03/08 04:13:08;;;;;;;;;;;2.00;99.90;;;;;;4855564;29;19928;-65
2023/03/08 04:15:41;;;;;;;;;;;2.00;99.90;;;;;;4886869;29;19935;-64
2023/03/08 04:18:13;;;;;;;;;;;2.10;99.90;;;;;;4883283;29;20305;-64
2023/03/08 04:20:45;;;;;;;;;;;2.10;99.90;;;;;;4876517;29;20345;-64
2023/03/08 04:23:17;;;;;;;;;;;2.20;99.90;;;;;;4876731;29;19938;-64
2023/03/08 04:25:50;;;;;;;;;;;2.10;99.90;;;;;;4875165;29;19971;-64
2023/03/08 04:28:21;;;;;;;;;;;2.10;99.90;;;;;;4854090;29;19928;-64
2023/03/08 04:30:53;;;;;;;;;;;2.10;99.90;;;;;;4863098;29;19935;-64
2023/03/08 04:33:25;;;;;;;;;;;2.10;99.90;;;;;;4876819;29;19927;-64
2023/03/08 04:35:57;;;;;;;;;;;2.10;99.90;;;;;;4876504;29;19935;-64
2023/03/08 04:38:24;;;;;;;;;;;2.00;99.90;;;;;;4857177;29;19927;-64
2023/03/08 04:41:00;;;;;;;;;;;2.00;99.90;;;;;;4866084;29;19963;-64
2023/03/08 04:43:45;;;;;;;;;;;2.00;99.90;;;;;;4863337;29;19932;-64
2023/03/08 04:46:22;;;;;;;;;;;1.90;99.90;;;;;;4875870;29;20476;-64
2023/03/08 04:48:54;;;;;;;;;;;1.90;99.90;;;;;;4864113;29;19932;-64
2023/03/08 04:51:32;;;;;;;;;;;1.90;99.90;;;;;;4864728;29;20449;-64
2023/03/08 04:54:06;;;;;;;;;;;1.90;99.90;;;;;;4887997;29;20010;-64
2023/03/08 04:56:43;;;;;;;;;;;1.80;99.90;;;;;;4869576;29;19935;-64
2023/03/08 04:59:16;;;;;;;;;;;1.80;99.90;;;;;;4875871;29;19931;-64
2023/03/08 05:01:49;;;;;;;;;;;1.80;99.90;;;;;;4871817;29;20059;-64
2023/03/08 05:04:22;;;;;;;;;;;1.80;99.90;;;;;;4864595;29;20423;-64
2023/03/08 05:06:53;;;;;;;;;;;1.70;99.90;;;;;;4870965;29;19931;-64
2023/03/08 05:09:23;;;;;;;;;;;1.70;99.90;;;;;;4874716;29;20379;-63
2023/03/08 05:11:57;;;;;;;;;;;1.70;99.90;;;;;;4865949;29;20286;-64
2023/03/08 05:14:43;;;;;;;;;;;1.70;99.90;;;;;;4871429;29;19932;-64
2023/03/08 05:17:15;;;;;;;;;;;1.80;99.90;;;;;;4876038;29;20409;-64
2023/03/08 05:19:43;;;;;;;;;;;1.80;99.90;;;;;;4874902;29;19928;-64
2023/03/08 05:22:12;;;;;;;;;;;1.80;99.90;;;;;;4886488;29;19928;-64
2023/03/08 05:24:47;;;;;;;;;;;1.80;99.90;;;;;;4870725;29;19939;-64
2023/03/08 05:27:19;;;;;;;;;;;1.80;99.90;;;;;;4877995;29;20317;-64
2023/03/08 05:29:52;;;;;;;;;;;1.80;99.90;;;;;;4874750;29;19989;-64
2023/03/08 05:32:24;;;;;;;;;;;1.70;99.90;;;;;;4867016;29;20019;-64
2023/03/08 05:34:56;;;;;;;;;;;1.80;99.90;;;;;;4861101;29;19938;-64
2023/03/08 05:37:32;;;;;;;;;;;1.80;99.90;;;;;;4863475;29;19928;-64
2023/03/08 05:40:05;;;;;;;;;;;1.80;99.90;;;;;;4871308;29;19971;-64
2023/03/08 05:42:40;;;;;;;;;;;1.80;99.90;;;;;;4877614;29;19935;-65
2023/03/08 05:45:13;;;;;;;;;;;1.80;99.90;;;;;;4874796;29;19956;-65
2023/03/08 05:47:46;;;;;;;;;;;1.70;99.90;;;;;;4873246;29;19928;-63
2023/03/08 05:50:18;;;;;;;;;;;1.80;99.90;;;;;;4859596;29;19936;-64
2023/03/08 05:52:51;;;;;;;;;;;1.80;99.90;;;;;;4873844;29;19958;-63
2023/03/08 05:55:22;;;;;;;;;;;1.80;99.90;;;;;;4871818;29;19959;-64
2023/03/08 05:57:55;;;;;;;;;;;1.80;99.90;;;;;;4871670;29;19932;-64
2023/03/08 06:00:27;;;;;;;;;;;1.80;99.90;;;;;;4875864;29;20476;-63
2023/03/08 06:03:02;;;;;;;;;;;1.80;99.90;;;;;;4875561;29;19931;-64
2023/03/08 06:05:35;;;;;;;;;;;1.90;99.90;;;;;;4876620;29;20034;-64
2023/03/08 06:08:07;;;;;;;;;;;1.90;99.90;;;;;;4883686;29;20341;-64
2023/03/08 06:10:34;;;;;;;;;;;1.90;99.90;;;;;;4873831;29;19932;-64
2023/03/08 06:13:06;;;;;;;;;;;1.90;99.90;;;;;;4849705;29;19928;-64
2023/03/08 06:15:38;;;;;;;;;;;1.90;99.90;;;;;;4868118;29;20058;-64
2023/03/08 06:18:05;;;;;;;;;;;1.90;99.90;;;;;;4874695;29;19928;-64
2023/03/08 06:20:37;;;;;;;;;;;1.90;99.90;;;;;;4863006;29;19932;-64
2023/03/08 06:23:09;;;;;;;;;;;2.00;99.90;;;;;;4871971;29;20455;-64
2023/03/08 06:25:42;;;;;;;;;;;1.90;99.90;;;;;;4872457;29;19932;-64
2023/03/08 06:28:09;;;;;;;;;;;2.00;99.90;;;;;;4875741;29;19936;-64
2023/03/08 06:30:38;;;;;;;;;;;2.00;99.90;;;;;;4858660;29;19928;-64
2023/03/08 06:33:11;;;;;;;;;;;2.00;99.90;;;;;;4887344;29;19980;-64
2023/03/08 06:35:43;;;;;;;;;;;2.10;99.90;;;;;;4883409;29;19974;-63
2023/03/08 06:38:15;;;;;;;;;;;2.10;99.90;;;;;;4875604;29;19928;-64
2023/03/08 06:40:47;;;;;;;;;;;2.10;99.90;;;;;;4876548;29;19992;-64
2023/03/08 06:43:20;;;;;;;;;;;2.20;99.90;;;;;;4872028;29;19971;-64
2023/03/08 06:45:52;;;;;;;;;;;2.20;99.90;;;;;;4874224;29;19935;-64
2023/03/08 06:48:24;;;;;;;;;;;2.20;99.90;;;;;;4875197;29;19931;-64
2023/03/08 06:50:56;;;;;;;;;;;2.20;99.90;;;;;;4867567;29;20050;-64
2023/03/08 06:53:28;;;;;;;;;;;2.30;99.90;;;;;;4873215;29;20428;-63
2023/03/08 06:56:02;;;;;;;;;;;2.40;99.90;;;;;;4874169;29;19992;-63
2023/03/08 06:58:35;;;;;;;;;;;2.40;99.90;;;;;;4860051;29;19935;-63
2023/03/08 07:01:08;;;;;;;;;;;2.40;99.90;;;;;;4873947;29;19932;-63
2023/03/08 07:03:35;;;;;;;;;;;2.40;99.90;;;;;;4883481;29;19951;-64
2023/03/08 07:06:08;;;;;;;;;;;2.50;99.90;;;;;;4869847;29;19976;-64
2023/03/08 07:08:39;;;;;;;;;;;2.50;99.90;;;;;;4868038;29;20405;-63
2023/03/08 07:11:11;;;;;;;;;;;2.60;99.90;;;;;;4873618;29;19928;-64
2023/03/08 07:13:43;;;;;;;;;;;2.60;99.90;;;;;;4862650;29;19951;-64
2023/03/08 07:16:15;;;;;;;;;;;2.70;99.90;;;;;;4874855;29;19935;-64
2023/03/08 07:18:46;;;;;;;;;;;2.70;99.90;;;;;;4869807;29;19932;-64
2023/03/08 07:21:18;;;;;;;;;;;2.80;99.90;;;;;;4873198;29;19939;-64
2023/03/08 07:23:51;;;;;;;;;;;2.80;99.90;;;;;;4862252;29;19963;-64
2023/03/08 07:26:23;;;;;;;;;;;2.90;99.90;;;;;;4870838;29;19934;-64
2023/03/08 07:28:56;;;;;;;;;;;2.90;99.90;;;;;;4876878;29;19934;-63
2023/03/08 07:31:28;;;;;;;;;;;3.10;99.90;;;;;;4870658;29;20018;-63
2023/03/08 07:33:55;;;;;;;;;;;3.20;99.90;;;;;;4870280;29;19954;-64
2023/03/08 07:36:26;;;;;;;;;;;3.30;99.90;;;;;;4871727;29;19928;-64
2023/03/08 07:38:58;;;;;;;;;;;3.40;99.90;;;;;;4871317;29;19984;-63
2023/03/08 07:41:31;;;;;;;;;;;3.50;99.90;;;;;;4862062;29;19988;-63
2023/03/08 07:44:04;;;;;;;;;;;3.60;99.90;;;;;;4877177;29;19932;-64
2023/03/08 07:46:36;;;;;;;;;;;3.70;99.90;;;;;;4865514;29;19928;-64
2023/03/08 07:49:09;;;;;;;;;;;3.80;99.90;;;;;;4876649;29;19932;-63
2023/03/08 07:51:41;;;;;;;;;;;3.90;99.90;;;;;;4874272;29;20367;-63
2023/03/08 07:54:13;;;;;;;;;;;4.00;99.90;;;;;;4878207;29;19932;-64
2023/03/08 07:56:44;;;;;;;;;;;4.00;99.90;;;;;;4871571;29;19928;-68
2023/03/08 07:59:16;;;;;;;;;;;4.10;99.90;;;;;;4877437;29;19961;-64
2023/03/08 08:01:49;;;;;;;;;;;4.10;99.90;;;;;;4866195;29;20303;-64
2023/03/08 08:04:16;;;;;;;;;;;4.20;99.90;;;;;;4877591;29;20415;-64
2023/03/08 08:06:48;;;;;;;;;;;4.30;99.90;;;;;;4863562;29;19928;-64
2023/03/08 08:09:16;;;;;;;;;;;4.30;99.90;;;;;;4866787;29;19928;-63
2023/03/08 08:11:48;;;;;;;;;;;4.30;99.90;;;;;;4855842;29;19928;-64
2023/03/08 08:14:14;;;;;;;;;;;4.40;99.90;;;;;;4875805;29;20310;-64
2023/03/08 08:16:46;;;;;;;;;;;4.50;99.90;;;;;;4876920;29;20313;-64
2023/03/08 08:19:18;;;;;;;;;;;4.50;99.90;;;;;;4869662;29;19928;-64
2023/03/08 08:21:50;;;;;;;;;;;4.60;99.90;;;;;;4864070;29;19928;-64
2023/03/08 08:24:22;;;;;;;;;;;4.60;99.90;;;;;;4872187;29;19932;-65
2023/03/08 08:26:54;;;;;;;;;;;4.70;99.90;;;;;;4877519;29;19974;-63
2023/03/08 08:29:26;;;;;;;;;;;4.70;99.90;;;;;;4877264;29;19932;-64
2023/03/08 08:31:58;;;;;;;;;;;4.70;99.90;;;;;;4876071;29;20406;-65
2023/03/08 08:34:30;;;;;;;;;;;4.80;99.90;;;;;;4874195;29;19934;-63
2023/03/08 08:37:02;;;;;;;;;;;4.80;99.90;;;;;;4880981;29;20415;-63
2023/03/08 08:39:28;;;;;;;;;;;4.80;99.90;;;;;;4868564;29;19934;-63
2023/03/08 08:41:55;;;;;;;;;;;4.70;99.90;;;;;;4872270;29;20385;-63
2023/03/08 08:44:22;;;;;;;;;;;4.70;99.90;;;;;;4869726;29;19951;-63
2023/03/08 08:46:53;;;;;;;;;;;4.70;99.90;;;;;;4863826;29;19935;-63
2023/03/08 08:49:25;;;;;;;;;;;4.70;99.90;;;;;;4876614;29;19931;-63
2023/03/08 08:51:57;;;;;;;;;;;4.80;99.90;;;;;;4875904;29;19939;-63
2023/03/08 08:54:28;;;;;;;;;;;4.80;99.90;;;;;;4878065;29;19927;-62
2023/03/08 08:57:00;;;;;;;;;;;4.70;99.90;;;;;;4869931;29;19940;-62
2023/03/08 08:59:32;;;;;;;;;;;4.80;99.90;;;;;;4877655;29;19935;-63
2023/03/08 09:02:05;;;;;;;;;;;4.80;99.90;;;;;;4868418;29;19932;-63
2023/03/08 09:04:36;;;;;;;;;;;4.80;99.90;;;;;;4875365;29;19935;-64
2023/03/08 09:07:05;;;;;;;;;;;4.90;99.90;;;;;;4867014;29;20011;-63
2023/03/08 09:09:38;;;;;;;;;;;4.90;99.90;;;;;;4875312;29;19932;-64
2023/03/08 09:12:10;;;;;;;;;;;4.90;99.90;;;;;;4874975;29;19965;-63
2023/03/08 09:14:42;;;;;;;;;;;4.80;99.90;;;;;;4874841;29;19928;-63
2023/03/08 09:17:14;;;;;;;;;;;4.90;99.90;;;;;;4869950;29;20317;-63
2023/03/08 09:19:46;;;;;;;;;;;4.80;99.90;;;;;;4866544;29;19931;-64
2023/03/08 09:22:18;;;;;;;;;;;4.90;99.90;;;;;;4866372;29;19932;-63
2023/03/08 09:24:50;;;;;;;;;;;4.80;99.90;;;;;;4874881;29;20023;-63
2023/03/08 09:27:22;;;;;;;;;;;4.90;99.90;;;;;;4866466;29;19928;-63
2023/03/08 09:29:53;;;;;;;;;;;4.90;99.90;;;;;;4876981;29;19970;-63
2023/03/08 09:32:25;;;;;;;;;;;4.90;99.90;;;;;;4872289;29;19928;-64
2023/03/08 09:34:57;;;;;;;;;;;4.80;99.90;;;;;;4874294;29;20018;-64
2023/03/08 09:37:29;;;;;;;;;;;4.80;99.90;;;;;;4859737;29;19988;-63
2023/03/08 09:40:08;;;;;;;;;;;4.80;99.90;;;;;;4865137;29;20397;-64
2023/03/08 09:42:40;;;;;;;;;;;4.80;99.90;;;;;;4868194;29;19936;-63
2023/03/08 09:45:18;;;;;;;;;;;4.80;99.90;;;;;;4873448;29;19931;-63
2023/03/08 09:47:50;;;;;;;;;;;4.80;99.90;;;;;;4876340;29;19935;-64
2023/03/08 09:50:43;;;;;;;;;;;4.80;99.90;;;;;;4869666;29;19938;-64
2023/03/08 09:53:21;;;;;;;;;;;4.80;99.90;;;;;;4875370;29;19931;-64
2023/03/08 09:55:56;;;;;;;;;;;4.80;99.90;;;;;;4879777;29;20412;-64
2023/03/08 09:58:36;;;;;;;;;;;4.80;99.90;;;;;;4868531;29;20309;-64
2023/03/08 10:01:11;;;;;;;;;;;4.80;99.90;;;;;;4873054;29;19939;-64
2023/03/08 10:03:55;;;;;;;;;;;4.80;99.90;;;;;;4863023;29;19932;-64
2023/03/08 10:06:26;;;;;;;;;;;4.80;99.90;;;;;;4874058;29;19932;-64
2023/03/08 10:09:10;;;;;;;;;;;4.90;99.90;;;;;;4868395;29;20501;-63
2023/03/08 10:11:47;;;;;;;;;;;4.90;99.90;;;;;;4869818;29;19928;-63
2023/03/08 10:14:27;;;;;;;;;;;4.90;99.90;;;;;;4868208;29;19932;-63
2023/03/08 10:17:04;;;;;;;;;;;4.90;99.90;;;;;;4861124;29;19932;-64
2023/03/08 10:20:07;;;;;;;;;;;5.00;99.90;;;;;;4871305;29;20043;-64
2023/03/08 10:22:41;;;;;;;;;;;5.00;99.90;;;;;;4891286;29;19928;-64
2023/03/08 10:25:23;;;;;;;;;;;5.10;99.90;;;;;;4873733;29;19934;-64
2023/03/08 10:27:55;;;;;;;;;;;5.20;99.90;;;;;;4873849;29;19932;-64
2023/03/08 10:30:39;;;;;;;;;;;5.20;99.90;;;;;;4872287;29;19988;-63
2023/03/08 10:33:13;;;;;;;;;;;5.30;99.90;;;;;;4871773;29;19974;-64
2023/03/08 10:36:01;;;;;;;;;;;5.30;99.90;;;;;;4884405;29;19932;-64
2023/03/08 10:38:34;;;;;;;;;;;5.40;99.90;;;;;;4859276;29;19932;-63
2023/03/08 10:41:09;;;;;;;;;;;5.50;99.90;;;;;;4860878;29;20031;-63
2023/03/08 10:43:48;;;;;;;;;;;5.50;99.90;;;;;;4869766;29;19972;-64
2023/03/08 10:46:21;;;;;;;;;;;5.60;99.90;;;;;;4873765;29;19943;-63
2023/03/08 10:48:53;;;;;;;;;;;5.70;99.90;;;;;;4873689;29;19932;-63
2023/03/08 10:51:27;;;;;;;;;;;5.80;99.90;;;;;;4869360;29;19931;-63
2023/03/08 10:54:01;;;;;;;;;;;5.80;99.90;;;;;;4864992;29;19935;-63
2023/03/08 10:56:45;;;;;;;;;;;5.90;99.90;;;;;;4878543;29;19928;-63
2023/03/08 10:59:26;;;;;;;;;;;6.00;99.90;;;;;;4886357;29;19988;-63
2023/03/08 11:01:55;;;;;;;;;;;6.00;99.90;;;;;;4875532;29;19928;-63
2023/03/08 11:04:28;;;;;;;;;;;6.10;99.90;;;;;;4875903;29;19929;-63
2023/03/08 11:07:09;;;;;;;;;;;6.10;99.90;;;;;;4876375;29;20354;-63
2023/03/08 11:09:40;;;;;;;;;;;6.20;99.90;;;;;;4870173;29;20417;-63
2023/03/08 11:12:23;;;;;;;;;;;6.20;99.90;;;;;;4876996;29;19928;-64
2023/03/08 11:14:55;;;;;;;;;;;6.30;99.90;;;;;;4877987;29;19928;-64
2023/03/08 11:17:21;;;;;;;;;;;6.30;99.90;;;;;;4877822;29;19932;-63
2023/03/08 11:19:58;;;;;;;;;;;6.30;99.90;;;;;;4878691;29;19928;-63
2023/03/08 11:22:30;;;;;;;;;;;6.40;99.90;;;;;;4873886;29;19928;-63
2023/03/08 11:25:02;;;;;;;;;;;6.50;99.90;;;;;;4876788;29;19927;-64
2023/03/08 11:27:41;;;;;;;;;;;6.70;99.90;;;;;;4877093;29;19938;-64
2023/03/08 11:30:18;;;;;;;;;;;6.90;99.90;;;;;;4873241;29;19967;-64
2023/03/08 11:32:53;;;;;;;;;;;7.10;99.90;;;;;;4858369;29;19943;-64
2023/03/08 11:35:22;;;;;;;;;;;7.30;99.90;;;;;;4872167;29;19932;-63
2023/03/08 11:37:58;;;;;;;;;;;7.50;99.90;;;;;;4875469;29;19984;-63
2023/03/08 11:40:38;;;;;;;;;;;7.80;99.90;;;;;;4875149;29;19932;-63
2023/03/08 11:43:10;;;;;;;;;;;8.10;99.90;;;;;;4874035;29;19935;-63
2023/03/08 11:45:56;;;;;;;;;;;8.40;99.90;;;;;;4874805;29;19975;-64
2023/03/08 11:49:03;;;;;;;;;;;8.50;99.90;;;;;;4872034;29;20405;-64
2023/03/08 11:51:53;;;;;;;;;;;8.70;99.90;;;;;;4872496;29;20441;-63
2023/03/08 11:54:25;;;;;;;;;;;8.80;99.90;;;;;;4876425;29;19928;-64
2023/03/08 11:56:58;;;;;;;;;;;8.80;99.90;;;;;;4876315;29;19935;-63
2023/03/08 11:59:30;;;;;;;;;;;8.80;99.90;;;;;;4869106;29;19928;-63
2023/03/08 12:02:05;;;;;;;;;;;8.80;99.90;;;;;;4861682;29;20561;-63
2023/03/08 12:04:32;;;;;;;;;;;8.80;99.90;;;;;;4875062;29;19932;-63
2023/03/08 12:07:06;;;;;;;;;;;8.90;99.90;;;;;;4887202;29;19931;-64
2023/03/08 12:09:36;;;;;;;;;;;8.80;99.90;;;;;;4878735;29;19970;-64
2023/03/08 12:12:23;;;;;;;;;;;8.80;99.90;;;;;;4875692;29;19928;-63
2023/03/08 12:15:06;;;;;;;;;;;8.90;99.90;;;;;;4870828;29;19938;-63
2023/03/08 12:17:40;;;;;;;;;;;9.00;99.90;;;;;;4873518;29;19935;-63
2023/03/08 12:20:13;;;;;;;;;;;9.10;99.90;;;;;;4876798;29;19983;-64
2023/03/08 12:22:46;;;;;;;;;;;9.10;99.90;;;;;;4862733;29;19939;-63
2023/03/08 12:25:29;;;;;;;;;;;9.30;99.90;;;;;;4868466;29;20409;-63
2023/03/08 12:28:01;;;;;;;;;;;9.30;99.90;;;;;;4876643;29;19935;-63
2023/03/08 12:30:39;;;;;;;;;;;9.40;99.90;;;;;;4874866;29;19932;-63
2023/03/08 12:33:08;;;;;;;;;;;9.40;99.90;;;;;;4871172;29;19928;-63
2023/03/08 12:35:51;;;;;;;;;;;9.50;99.90;;;;;;4855798;29;19935;-63
2023/03/08 12:38:17;;;;;;;;;;;9.50;99.90;;;;;;4879830;29;19935;-64
2023/03/08 12:40:50;;;;;;;;;;;9.60;99.90;;;;;;4872918;29;19927;-63
2023/03/08 12:43:22;;;;;;;;;;;9.60;99.90;;;;;;4874376;29;19934;-63
2023/03/08 12:46:10;;;;;;;;;;;9.80;99.90;;;;;;4877637;29;19927;-63
2023/03/08 12:48:43;;;;;;;;;;;9.90;99.90;;;;;;4870805;29;19980;-64
2023/03/08 12:51:18;;;;;;;;;;;10.10;99.90;;;;;;4873841;29;19943;-64
2023/03/08 12:53:49;;;;;;;;;;;10.20;99.90;;;;;;4865830;29;20408;-65
2023/03/08 12:56:33;;;;;;;;;;;10.30;99.90;;;;;;4873884;29;20362;-64
2023/03/08 12:59:14;;;;;;;;;;;10.30;99.90;;;;;;4875255;29;19992;-64
2023/03/08 13:01:57;;;;;;;;;;;10.30;99.90;;;;;;4873308;29;19928;-64
2023/03/08 13:04:31;;;;;;;;;;;10.20;99.90;;;;;;4872644;29;19936;-64
2023/03/08 13:07:21;;;;;;;;;;;10.20;99.90;;;;;;4875080;29;20400;-64
2023/03/08 13:09:51;;;;;;;;;;;10.30;99.90;;;;;;4876364;29;20480;-64
2023/03/08 13:12:39;;;;;;;;;;;10.30;99.90;;;;;;4872440;29;19936;-64
2023/03/08 13:15:16;;;;;;;;;;;10.20;99.90;;;;;;4873023;29;19988;-64
2023/03/08 13:17:50;;;;;;;;;;;10.20;99.90;;;;;;4889293;29;19991;-64
2023/03/08 13:20:25;;;;;;;;;;;10.10;99.90;;;;;;4871746;29;19936;-63
2023/03/08 13:23:12;;;;;;;;;;;10.00;99.90;;;;;;4871468;29;19931;-64
2023/03/08 13:25:49;;;;;;;;;;;10.00;99.90;;;;;;4885455;29;19960;-63
2023/03/08 13:28:20;;;;;;;;;;;10.00;99.90;;;;;;4872942;29;19932;-63
2023/03/08 13:30:54;;;;;;;;;;;10.00;99.90;;;;;;4869741;29;19983;-63
2023/03/08 13:33:28;;;;;;;;;;;10.00;99.90;;;;;;4874824;29;19936;-64
2023/03/08 13:36:20;;;;;;;;;;;10.00;99.90;;;;;;4868995;29;19991;-64
2023/03/08 13:38:54;;;;;;;;;;;10.00;99.90;;;;;;4872736;29;19928;-63
2023/03/08 13:41:33;;;;;;;;;;;10.10;99.90;;;;;;4875683;29;19931;-64
2023/03/08 13:44:34;;;;;;;;;;;10.10;99.90;;;;;;4871540;29;19928;-63
2023/03/08 13:47:17;;;;;;;;;;;10.20;99.90;;;;;;4881998;29;19932;-63
2023/03/08 13:49:50;;;;;;;;;;;10.30;99.90;;;;;;4871506;29;19940;-64
2023/03/08 13:52:23;;;;;;;;;;;10.30;99.90;;;;;;4867035;29;19936;-64
2023/03/08 13:54:56;;;;;;;;;;;10.40;99.90;;;;;;4871809;29;19984;-64
2023/03/08 13:57:29;;;;;;;;;;;10.50;99.90;;;;;;4870820;29;19928;-64
2023/03/08 14:00:19;;;;;;;;;;;10.60;99.90;;;;;;4869448;29;19957;-64
2023/03/08 14:02:51;;;;;;;;;;;10.60;99.90;;;;;;4873382;29;19983;-64
2023/03/08 14:05:25;;;;;;;;;;;10.60;99.90;;;;;;4872195;29;20370;-64
2023/03/08 14:07:56;;;;;;;;;;;10.70;99.90;;;;;;4878048;29;19987;-64
2023/03/08 14:10:43;;;;;;;;;;;10.70;99.90;;;;;;4872504;29;19940;-64
2023/03/08 14:13:17;;;;;;;;;;;10.70;99.90;;;;;;4868433;29;19939;-63
2023/03/08 14:15:51;;;;;;;;;;;10.90;99.90;;;;;;4868355;29;20011;-63
2023/03/08 14:18:25;;;;;;;;;;;11.00;99.90;;;;;;4874222;29;19987;-63
2023/03/08 14:21:12;;;;;;;;;;;11.00;99.90;;;;;;4869331;29;20015;-63
2023/03/08 14:23:51;;;;;;;;;;;11.10;99.90;;;;;;4866185;29;19932;-63
2023/03/08 14:26:23;;;;;;;;;;;11.10;99.90;;;;;;4869804;29;19936;-63
2023/03/08 14:29:00;;;;;;;;;;;11.20;99.90;;;;;;4874106;29;19927;-63
2023/03/08 14:31:32;;;;;;;;;;;11.20;99.90;;;;;;4864857;29;19984;-63
2023/03/08 14:34:16;;;;;;;;;;;11.50;99.90;;;;;;4855138;29;19932;-63
2023/03/08 14:36:58;;;;;;;;;;;11.60;99.90;;;;;;4867419;29;20350;-63
2023/03/08 14:39:30;;;;;;;;;;;11.80;99.90;;;;;;4870293;29;19935;-63
2023/03/08 14:42:10;;;;;;;;;;;11.80;99.90;;;;;;4875195;29;19936;-63
2023/03/08 14:44:41;;;;;;;;;;;11.70;99.90;;;;;;4865737;29;20302;-63
2023/03/08 14:47:21;;;;;;;;;;;11.70;99.90;;;;;;4873220;29;19997;-64
2023/03/08 14:50:13;;;;;;;;;;;11.70;99.90;;;;;;4871984;29;19936;-65
2023/03/08 14:52:45;;;;;;;;;;;11.60;99.90;;;;;;4876987;29;19939;-63
2023/03/08 14:55:22;;;;;;;;;;;11.60;99.90;;;;;;4869011;29;19927;-63
2023/03/08 14:57:57;;;;;;;;;;;11.80;99.90;;;;;;4868556;29;20409;-63
2023/03/08 15:00:29;;;;;;;;;;;12.00;99.90;;;;;;4873788;29;19939;-63
2023/03/08 15:02:56;;;;;;;;;;;11.90;99.90;;;;;;4869599;29;20381;-63
2023/03/08 15:05:28;;;;;;;;;;;11.70;99.90;;;;;;4887993;29;19933;-63
2023/03/08 15:08:00;;;;;;;;;;;11.60;99.90;;;;;;4871543;29;19939;-64